createdAt,value
2022-08-26T00:04:42.114Z,101599.94
2022-08-26T00:09:47.432Z,101591.91
2022-08-26T00:14:52.107Z,101580.31
2022-08-26T00:19:55.146Z,101596.38
2022-08-26T00:24:58.322Z,101589.22
2022-08-26T00:30:03.459Z,101589.22
2022-08-26T00:35:08.068Z,101594.59
2022-08-26T00:40:16.488Z,101590.13
2022-08-26T00:45:22.053Z,101595.50
2022-08-26T00:50:42.443Z,101593.69
2022-08-26T00:55:45.569Z,101598.16
2022-08-26T01:00:50.050Z,101593.69
2022-08-26T01:05:56.641Z,101591.91
2022-08-26T01:11:07.471Z,101588.34
2022-08-26T01:16:16.743Z,101582.97
2022-08-26T01:21:28.190Z,101576.72
2022-08-26T01:26:36.749Z,101579.38
2022-08-26T01:31:43.586Z,101589.16
2022-08-26T01:36:51.342Z,101593.63
2022-08-26T01:41:58.630Z,101588.28
2022-08-26T01:47:07.780Z,101582.06
2022-08-26T01:52:17.412Z,101584.75
2022-08-26T01:57:22.990Z,101581.16
2022-08-26T02:02:27.341Z,101589.13
2022-08-26T02:07:35.266Z,101583.81
2022-08-26T02:12:41.271Z,101588.19
2022-08-26T02:17:47.931Z,101588.19
2022-08-26T02:22:55.738Z,101604.19
2022-08-26T02:28:00.182Z,101605.97
2022-08-26T02:33:04.992Z,101603.25
2022-08-26T02:38:11.198Z,101615.75
2022-08-26T02:43:15.813Z,101620.19
2022-08-26T02:48:21.326Z,101613.94
2022-08-26T02:53:25.392Z,101613.03
2022-08-26T02:58:30.329Z,101608.59
2022-08-26T03:03:36.498Z,101605.00
2022-08-26T03:08:39.780Z,101597.00
2022-08-26T03:13:44.355Z,101592.53
2022-08-26T03:18:52.208Z,101588.94
2022-08-26T03:23:56.161Z,101598.75
2022-08-26T03:29:21.083Z,101602.25
2022-08-26T03:34:24.515Z,101601.38
2022-08-26T03:39:31.479Z,101610.25
2022-08-26T03:44:37.066Z,101598.69
2022-08-26T03:49:45.139Z,101609.28
2022-08-26T03:54:48.188Z,101600.44
2022-08-26T03:59:52.733Z,101601.28
2022-08-26T04:04:56.812Z,101595.91
2022-08-26T04:10:00.439Z,101595.03
2022-08-26T04:15:05.505Z,101602.09
2022-08-26T04:20:09.772Z,101602.09
2022-08-26T04:25:14.091Z,101603.91
2022-08-26T04:30:20.136Z,101614.59
2022-08-26T04:35:26.169Z,101620.78
2022-08-26T04:40:29.412Z,101619.00
2022-08-26T04:45:37.423Z,101614.56
2022-08-26T04:50:41.229Z,101619.00
2022-08-26T04:55:46.571Z,101619.00
2022-08-26T05:00:55.118Z,101622.59
2022-08-26T05:05:59.043Z,101615.50
2022-08-26T05:11:05.744Z,101616.34
2022-08-26T05:16:12.901Z,101623.50
2022-08-26T05:21:20.636Z,101622.59
2022-08-26T05:26:24.879Z,101625.16
2022-08-26T05:31:32.572Z,101631.44
2022-08-26T05:36:37.811Z,101632.34
2022-08-26T05:41:44.779Z,101629.63
2022-08-26T05:46:49.482Z,101631.47
2022-08-26T05:51:54.435Z,101637.72
2022-08-26T05:56:57.588Z,101638.69
2022-08-26T06:02:03.577Z,101640.53
2022-08-26T06:07:06.637Z,101638.84
2022-08-26T06:12:13.006Z,101649.59
2022-08-26T06:17:19.720Z,101668.38
2022-08-26T06:22:40.200Z,101665.78
2022-08-26T06:27:43.517Z,101676.44
2022-08-26T06:32:49.449Z,101671.13
2022-08-26T06:37:52.445Z,101680.94
2022-08-26T06:42:55.566Z,101692.50
2022-08-26T06:48:00.423Z,101682.69
2022-08-26T06:53:04.529Z,101694.34
2022-08-26T06:58:07.655Z,101697.06
2022-08-26T07:03:12.797Z,101695.34
2022-08-26T07:08:16.386Z,101702.50
2022-08-26T07:13:29.893Z,101700.72
2022-08-26T07:18:39.081Z,101708.69
2022-08-26T07:23:42.715Z,101705.16
2022-08-26T07:28:47.243Z,101712.19
2022-08-26T07:33:57.639Z,101708.59
2022-08-26T07:39:00.823Z,101709.53
2022-08-26T07:44:04.389Z,101718.50
2022-08-26T07:49:09.531Z,101721.97
2022-08-26T07:54:12.637Z,101714.00
2022-08-26T07:59:17.049Z,101732.72
2022-08-26T08:04:26.040Z,101724.75
2022-08-26T08:09:29.723Z,101737.25
2022-08-26T08:14:34.630Z,101735.50
2022-08-26T08:19:39.343Z,101743.56
2022-08-26T08:24:42.836Z,101736.47
2022-08-26T08:29:46.610Z,101729.34
2022-08-26T08:34:51.060Z,101733.81
2022-08-26T08:39:54.741Z,101728.47
2022-08-26T08:45:00.600Z,101728.47
2022-08-26T08:50:13.874Z,101733.81
2022-08-26T08:55:18.254Z,101724.91
2022-08-26T09:00:30.088Z,101734.72
2022-08-26T09:05:42.612Z,101744.53
2022-08-26T09:10:52.797Z,101749.00
2022-08-26T09:16:07.127Z,101752.56
2022-08-26T09:21:15.325Z,101752.56
2022-08-26T09:26:29.362Z,101740.06
2022-08-26T09:31:35.882Z,101747.22
2022-08-26T09:36:43.904Z,101746.31
2022-08-26T09:42:03.702Z,101754.34
2022-08-26T09:47:09.104Z,101754.38
2022-08-26T09:52:23.507Z,101760.59
2022-08-26T09:57:29.756Z,101757.91
2022-08-26T10:02:47.731Z,101761.47
2022-08-26T10:07:54.800Z,101757.91
2022-08-26T10:13:06.297Z,101757.03
2022-08-26T10:18:15.196Z,101763.28
2022-08-26T10:23:23.377Z,101747.19
2022-08-26T10:28:33.788Z,101754.38
2022-08-26T10:33:39.284Z,101753.44
2022-08-26T10:38:44.438Z,101750.78
2022-08-26T10:43:52.504Z,101748.13
2022-08-26T10:49:00.235Z,101752.56
2022-08-26T10:54:11.992Z,101757.91
2022-08-26T10:59:22.780Z,101757.91
2022-08-26T11:04:38.793Z,101757.03
2022-08-26T11:09:47.873Z,101754.38
2022-08-26T11:14:58.734Z,101761.50
2022-08-26T11:20:09.241Z,101764.16
2022-08-26T11:25:19.353Z,101763.19
2022-08-26T11:30:48.605Z,101751.53
2022-08-26T11:36:00.111Z,101757.72
2022-08-26T11:41:21.877Z,101748.69
2022-08-26T11:46:28.055Z,101748.56
2022-08-26T11:51:31.922Z,101750.34
2022-08-26T11:56:38.159Z,101747.88
2022-08-26T12:01:45.680Z,101749.63
2022-08-26T12:06:52.421Z,101759.56
2022-08-26T12:12:15.010Z,101754.19
2022-08-26T12:17:22.454Z,101749.63
2022-08-26T12:22:28.733Z,101770.19
2022-08-26T12:27:34.996Z,101754.13
2022-08-26T12:32:57.115Z,101750.56
2022-08-26T12:38:01.516Z,101754.22
2022-08-26T12:43:07.431Z,101767.53
2022-08-26T12:48:13.534Z,101767.59
2022-08-26T12:53:22.361Z,101761.31
2022-08-26T12:58:31.693Z,101770.25
2022-08-26T13:03:44.542Z,101763.16
2022-08-26T13:08:48.634Z,101765.91
2022-08-26T13:13:56.728Z,101764.13
2022-08-26T13:19:03.107Z,101765.00
2022-08-26T13:24:09.422Z,101761.44
2022-08-26T13:29:14.375Z,101756.97
2022-08-26T13:34:19.536Z,101765.88
2022-08-26T13:39:23.637Z,101760.50
2022-08-26T13:44:28.322Z,101759.53
2022-08-26T13:49:31.217Z,101755.16
2022-08-26T13:54:34.624Z,101751.63
2022-08-26T13:59:39.158Z,101759.59
2022-08-26T14:04:43.388Z,101762.22
2022-08-26T14:09:46.498Z,101762.25
2022-08-26T14:14:51.210Z,101762.28
2022-08-26T14:19:54.656Z,101760.47
2022-08-26T14:24:57.643Z,101756.97
2022-08-26T14:30:03.432Z,101751.63
2022-08-26T14:35:07.351Z,101747.19
2022-08-26T14:40:14.266Z,101750.75
2022-08-26T14:45:23.515Z,101740.91
2022-08-26T14:50:27.853Z,101735.59
2022-08-26T14:55:36.003Z,101729.34
2022-08-26T15:00:40.458Z,101733.81
2022-08-26T15:05:48.040Z,101722.19
2022-08-26T15:10:51.252Z,101719.44
2022-08-26T15:15:55.807Z,101712.31
2022-08-26T15:20:58.882Z,101715.03
2022-08-26T15:26:04.350Z,101720.34
2022-08-26T15:31:09.803Z,101709.50
2022-08-26T15:36:12.933Z,101720.16
2022-08-26T15:41:16.141Z,101718.28
2022-08-26T15:46:21.166Z,101700.34
2022-08-26T15:51:25.786Z,101716.19
2022-08-26T15:56:31.074Z,101705.41
2022-08-26T16:01:36.318Z,101697.41
2022-08-26T16:06:41.612Z,101703.00
2022-08-26T16:11:44.597Z,101692.34
2022-08-26T16:16:49.250Z,101698.78
2022-08-26T16:21:52.513Z,101700.63
2022-08-26T16:26:55.932Z,101706.03
2022-08-26T16:32:00.285Z,101690.91
2022-08-26T16:37:03.466Z,101689.91
2022-08-26T16:42:06.768Z,101683.56
2022-08-26T16:47:12.219Z,101684.34
2022-08-26T16:52:15.223Z,101690.63
2022-08-26T16:57:18.259Z,101705.03
2022-08-26T17:02:22.651Z,101707.78
2022-08-26T17:07:27.610Z,101706.97
2022-08-26T17:12:31.392Z,101707.91
2022-08-26T17:17:35.927Z,101707.94
2022-08-26T17:22:40.498Z,101699.00
2022-08-26T17:27:44.597Z,101709.75
2022-08-26T17:32:49.697Z,101714.22
2022-08-26T17:37:53.137Z,101707.94
2022-08-26T17:42:56.751Z,101714.19
2022-08-26T17:48:01.445Z,101718.66
2022-08-26T17:53:04.645Z,101727.56
2022-08-26T17:58:07.970Z,101739.13
2022-08-26T18:03:12.437Z,101725.75
2022-08-26T18:08:15.483Z,101738.16
2022-08-26T18:13:19.329Z,101738.19
2022-08-26T18:18:23.680Z,101738.16
2022-08-26T18:23:26.948Z,101731.91
2022-08-26T18:28:37.841Z,101733.66
2022-08-26T18:33:43.216Z,101741.66
2022-08-26T18:38:46.630Z,101748.78
2022-08-26T18:43:50.870Z,101752.31
2022-08-26T18:48:56.840Z,101762.97
2022-08-26T18:54:01.337Z,101770.03
2022-08-26T18:59:05.847Z,101765.59
2022-08-26T19:04:15.302Z,101764.63
2022-08-26T19:09:20.028Z,101771.63
2022-08-26T19:14:23.935Z,101775.09
2022-08-26T19:19:28.679Z,101785.75
2022-08-26T19:24:32.232Z,101783.00
2022-08-26T19:29:36.874Z,101796.28
2022-08-26T19:34:41.217Z,101797.16
2022-08-26T19:39:44.232Z,101796.97
2022-08-26T19:45:04.375Z,101797.72
2022-08-26T19:50:11.557Z,101798.50
2022-08-26T19:55:17.021Z,101801.88
2022-08-26T20:00:22.501Z,101813.28
2022-08-26T20:05:27.995Z,101810.38
2022-08-26T20:10:31.003Z,101813.84
2022-08-26T20:15:34.114Z,101813.66
2022-08-26T20:20:56.082Z,101812.63
2022-08-26T20:25:59.043Z,101817.81
2022-08-26T20:31:04.727Z,101812.38
2022-08-26T20:36:10.789Z,101808.63
2022-08-26T20:41:14.212Z,101805.75
2022-08-26T20:46:20.298Z,101809.09
2022-08-26T20:51:27.404Z,101816.91
2022-08-26T20:56:30.558Z,101809.66
2022-08-26T21:01:42.320Z,101816.66
2022-08-26T21:06:52.708Z,101823.56
2022-08-26T21:11:56.338Z,101825.19
2022-08-26T21:16:59.564Z,101813.44
2022-08-26T21:22:04.054Z,101823.97
2022-08-26T21:27:07.071Z,101816.66
2022-08-26T21:32:10.184Z,101829.88
2022-08-26T21:37:20.169Z,101825.28
2022-08-26T21:42:24.564Z,101826.97
2022-08-26T21:47:27.712Z,101815.22
2022-08-26T21:52:37.548Z,101816.81
2022-08-26T21:57:40.900Z,101814.88
2022-08-26T22:02:44.535Z,101826.16
2022-08-26T22:07:49.167Z,101827.84
2022-08-26T22:12:52.430Z,101827.66
2022-08-26T22:17:55.611Z,101830.19
2022-08-26T22:23:00.976Z,101833.63
2022-08-26T22:28:08.329Z,101823.75
2022-08-26T22:33:11.859Z,101820.09
2022-08-26T22:38:16.721Z,101826.03
2022-08-26T22:43:20.342Z,101826.03
2022-08-26T22:48:25.774Z,101831.13
2022-08-26T22:53:30.564Z,101821.38
2022-08-26T22:58:38.869Z,101821.25
2022-08-26T23:03:42.301Z,101823.84
2022-08-26T23:08:47.461Z,101814.84
2022-08-26T23:13:50.727Z,101817.47
2022-08-26T23:18:55.477Z,101813.94
2022-08-26T23:24:00.049Z,101817.41
2022-08-26T23:29:03.967Z,101812.91
2022-08-26T23:34:25.115Z,101808.44
2022-08-26T23:39:29.808Z,101813.66
2022-08-26T23:44:32.975Z,101813.69
2022-08-26T23:49:37.103Z,101805.81
2022-08-26T23:54:41.925Z,101812.00
2022-08-26T23:59:45.195Z,101805.66
